CheckWX is a tool to help pilots better visualize weather data.  It is not intended as a substitute for an official pre-flight weather briefing.

14:48:31 UTC

SKCC TAF
Camilo Daza International Airport
Cúcuta, Colombia
TAF SKCC 231100Z 2312/2412 VRB02KT 8000 SCT015 SCT080 TEMPO 2312/2314 5000 BCFG DZ FEW010 BKN070 BECMG 2315/2317 33015KT TX31/2319Z TN23/2411Z

Mar-23@
12:00 UTC

Mar-23 @ 12:00 UTC

Mar-23@
15:00 UTC

Mar-23 @ 15:00 UTC

TAF SKCC 231100Z 2312/2412 VRB02KT 8000 SCT015 SCT080
Wind
  • Variable at 2 KTS
Cloud Levels
  • Scattered at 1,500' AGL
  • Scattered at 8,000' AGL

Mar-23@
12:00 UTC

Mar-23 @ 12:00 UTC

Mar-23@
14:00 UTC

Mar-23 @ 14:00 UTC

TEMPO 2312/2314 5000 BCFG DZ FEW010 BKN070

Expired

Conditions
Patches of Fog, Drizzle
Cloud Levels
  • Few at 1,000' AGL
  • Broken at 7,000' AGL

Mar-23@
15:00 UTC

Mar-23 @ 15:00 UTC

Mar-24@
12:00 UTC

Mar-24 @ 12:00 UTC

BECMG 2315/2317 33015KT TX31/2319Z TN23/2411Z

Becoming

Becoming Conditions expected by Sat, Mar 23, 2019 @ 17:00 UTC

Wind
  • 330° at 15 KTS
Cloud Levels
  • Scattered at 1,500' AGL
  • Scattered at 8,000' AGL